createdAt,value
2022-11-27T00:00:31.670Z,1.70
2022-11-27T00:02:58.575Z,1.70
2022-11-27T00:05:25.450Z,1.60
2022-11-27T00:07:52.243Z,1.60
2022-11-27T00:10:19.112Z,1.60
2022-11-27T00:12:45.884Z,1.70
2022-11-27T00:15:17.108Z,1.70
2022-11-27T00:17:44.152Z,1.70
2022-11-27T00:20:11.189Z,1.70
2022-11-27T00:22:37.928Z,1.70
2022-11-27T00:25:04.882Z,1.70
2022-11-27T00:27:31.627Z,1.70
2022-11-27T00:29:58.337Z,1.70
2022-11-27T00:32:25.111Z,1.60
2022-11-27T00:34:51.967Z,1.70
2022-11-27T00:37:18.702Z,1.70
2022-11-27T00:39:45.496Z,1.70
2022-11-27T00:42:12.280Z,1.70
2022-11-27T00:44:39.243Z,1.60
2022-11-27T00:47:06.210Z,1.70
2022-11-27T00:49:33.106Z,1.70
2022-11-27T00:51:59.870Z,1.70
2022-11-27T00:54:26.634Z,1.70
2022-11-27T00:56:53.342Z,1.80
2022-11-27T00:59:20.230Z,1.70
2022-11-27T01:01:47.201Z,1.70
2022-11-27T01:04:15.100Z,1.70
2022-11-27T01:06:42.269Z,1.70
2022-11-27T01:09:10.424Z,1.60
2022-11-27T01:11:37.170Z,1.60
2022-11-27T01:14:05.830Z,1.60
2022-11-27T01:16:33.318Z,1.60
2022-11-27T01:19:00.785Z,1.60
2022-11-27T01:21:28.865Z,1.40
2022-11-27T01:23:55.764Z,1.40
2022-11-27T01:26:22.562Z,1.50
2022-11-27T01:28:52.344Z,1.50
2022-11-27T01:31:22.072Z,1.50
2022-11-27T01:33:52.396Z,1.50
2022-11-27T01:36:19.106Z,1.50
2022-11-27T01:38:45.946Z,1.50
2022-11-27T01:41:15.746Z,1.50
2022-11-27T01:43:45.613Z,1.50
2022-11-27T01:46:31.174Z,1.50
2022-11-27T01:49:00.605Z,1.50
2022-11-27T01:51:27.553Z,1.50
2022-11-27T01:53:54.908Z,1.40
2022-11-27T01:56:23.079Z,1.40
2022-11-27T01:58:50.226Z,1.40
2022-11-27T02:01:17.166Z,1.40
2022-11-27T02:03:44.012Z,1.40
2022-11-27T02:06:13.857Z,1.40
2022-11-27T02:08:41.076Z,1.40
2022-11-27T02:11:23.169Z,1.40
2022-11-27T02:14:03.751Z,1.40
2022-11-27T02:16:47.772Z,1.40
2022-11-27T02:19:21.836Z,1.30
2022-11-27T02:21:59.269Z,1.30
2022-11-27T02:24:44.977Z,1.30
2022-11-27T02:27:17.796Z,1.30
2022-11-27T02:29:47.819Z,1.30
2022-11-27T02:32:21.744Z,1.30
2022-11-27T02:34:55.976Z,1.30
2022-11-27T02:37:26.733Z,1.30
2022-11-27T02:40:01.659Z,1.30
2022-11-27T02:42:30.105Z,1.30
2022-11-27T02:45:05.447Z,1.30
2022-11-27T02:47:32.585Z,1.30
2022-11-27T02:49:59.592Z,1.20
2022-11-27T02:52:27.610Z,1.20
2022-11-27T02:54:59.456Z,1.30
2022-11-27T02:57:27.344Z,1.20
2022-11-27T02:59:56.079Z,1.20
2022-11-27T03:05:28.759Z,1.20
2022-11-27T03:08:05.015Z,1.30
2022-11-27T03:11:04.451Z,1.30
2022-11-27T03:13:33.036Z,1.20
2022-11-27T03:16:17.459Z,1.20
2022-11-27T03:40:06.577Z,1.20
2022-11-27T03:42:40.453Z,1.10
2022-11-27T03:45:10.352Z,1.20
2022-11-27T03:47:46.035Z,1.20
2022-11-27T03:50:12.957Z,1.20
2022-11-27T03:52:40.271Z,1.20
2022-11-27T03:55:24.139Z,1.20
2022-11-27T03:58:09.045Z,1.20
2022-11-27T04:00:38.295Z,1.20
2022-11-27T04:03:05.035Z,1.20
2022-11-27T04:05:31.740Z,1.20
2022-11-27T04:07:58.538Z,1.20
2022-11-27T04:10:25.315Z,1.10
2022-11-27T04:12:52.122Z,1.10
2022-11-27T04:15:18.863Z,1.20
2022-11-27T04:17:45.647Z,1.10
2022-11-27T04:20:15.655Z,1.10
2022-11-27T04:22:42.470Z,1.10
2022-11-27T04:25:09.477Z,1.10
2022-11-27T04:27:36.226Z,1.10
2022-11-27T04:30:03.506Z,1.10
2022-11-27T04:32:30.225Z,1.10
2022-11-27T04:34:56.965Z,1.10
2022-11-27T04:37:23.705Z,1.10
2022-11-27T04:39:50.474Z,1.10
2022-11-27T04:42:17.205Z,1.10
2022-11-27T04:44:43.950Z,1.00
2022-11-27T04:47:10.746Z,1.00
2022-11-27T04:49:37.534Z,0.90
2022-11-27T04:52:04.781Z,0.90
2022-11-27T04:54:31.518Z,0.90
2022-11-27T04:56:58.266Z,0.90
2022-11-27T04:59:25.004Z,0.90
2022-11-27T05:01:51.815Z,1.00
2022-11-27T05:04:18.578Z,1.00
2022-11-27T05:06:45.244Z,1.00
2022-11-27T05:09:11.999Z,1.00
2022-11-27T05:11:38.765Z,0.90
2022-11-27T05:14:24.125Z,0.90
2022-11-27T05:16:52.014Z,0.90
2022-11-27T05:19:19.575Z,0.90
2022-11-27T05:21:47.303Z,0.90
2022-11-27T05:24:14.760Z,0.90
2022-11-27T05:26:41.491Z,0.90
2022-11-27T05:29:08.898Z,0.90
2022-11-27T05:31:35.831Z,0.90
2022-11-27T05:34:02.833Z,0.90
2022-11-27T05:36:30.047Z,0.90
2022-11-27T05:38:57.051Z,0.90
2022-11-27T05:41:23.939Z,0.90
2022-11-27T05:43:50.767Z,0.90
2022-11-27T05:46:18.640Z,0.90
2022-11-27T05:48:45.356Z,0.90
2022-11-27T05:51:12.081Z,0.90
2022-11-27T05:53:39.032Z,0.90
2022-11-27T05:56:07.512Z,0.90
2022-11-27T05:58:34.349Z,0.80
2022-11-27T06:01:01.061Z,0.80
2022-11-27T06:03:27.976Z,0.80
2022-11-27T06:05:54.773Z,0.80
2022-11-27T06:08:21.739Z,0.80
2022-11-27T06:10:49.017Z,0.80
2022-11-27T06:13:15.824Z,0.80
2022-11-27T06:15:42.622Z,0.70
2022-11-27T06:18:10.674Z,0.80
2022-11-27T06:20:43.377Z,0.80
2022-11-27T06:23:10.949Z,0.80
2022-11-27T06:25:37.660Z,0.80
2022-11-27T06:28:04.462Z,0.80
2022-11-27T06:30:31.209Z,0.80
2022-11-27T06:32:57.948Z,0.80
2022-11-27T06:35:24.708Z,0.80
2022-11-27T06:37:51.740Z,0.80
2022-11-27T06:40:18.623Z,0.80
2022-11-27T06:42:45.427Z,0.80
2022-11-27T06:45:12.225Z,0.80
2022-11-27T06:47:39.022Z,0.80
2022-11-27T06:50:06.070Z,0.70
2022-11-27T06:52:35.891Z,0.70
2022-11-27T06:55:06.934Z,0.70
2022-11-27T06:57:33.636Z,0.70
2022-11-27T07:00:00.323Z,0.70
2022-11-27T07:02:27.057Z,0.80
2022-11-27T07:04:53.802Z,0.70
2022-11-27T07:07:20.555Z,0.70
2022-11-27T07:09:47.336Z,0.70
2022-11-27T07:12:14.038Z,0.70
2022-11-27T07:14:41.816Z,0.70
2022-11-27T07:17:08.783Z,0.60
2022-11-27T07:19:39.455Z,0.70
2022-11-27T07:22:06.715Z,0.70
2022-11-27T07:24:33.874Z,0.70
2022-11-27T07:27:00.634Z,0.70
2022-11-27T07:29:27.417Z,0.80
2022-11-27T07:31:54.221Z,0.70
2022-11-27T07:34:35.008Z,0.70
2022-11-27T07:37:14.306Z,0.70
2022-11-27T07:40:01.269Z,0.70
2022-11-27T07:42:38.461Z,0.80
2022-11-27T07:45:07.447Z,0.80
2022-11-27T07:47:34.372Z,0.80
2022-11-27T07:50:03.146Z,0.80
2022-11-27T07:52:38.058Z,0.90
2022-11-27T07:55:19.411Z,0.90
2022-11-27T07:57:46.467Z,1.00
2022-11-27T08:00:13.571Z,1.00
2022-11-27T08:02:40.670Z,1.10
2022-11-27T08:05:13.069Z,1.10
2022-11-27T08:07:41.150Z,1.10
2022-11-27T08:10:14.286Z,1.20
2022-11-27T08:12:51.129Z,1.20
2022-11-27T08:15:43.891Z,1.30
2022-11-27T08:18:13.726Z,1.40
2022-11-27T08:20:43.297Z,1.40
2022-11-27T08:23:10.146Z,1.50
2022-11-27T08:25:37.968Z,1.60
2022-11-27T08:28:04.864Z,1.60
2022-11-27T08:30:31.710Z,1.70
2022-11-27T08:32:58.400Z,1.80
2022-11-27T08:35:25.400Z,1.80
2022-11-27T08:37:52.446Z,1.80
2022-11-27T08:40:19.594Z,1.90
2022-11-27T08:42:46.480Z,1.90
2022-11-27T08:45:13.479Z,2.00
2022-11-27T08:47:40.683Z,2.00
2022-11-27T08:50:07.889Z,2.10
2022-11-27T08:52:34.751Z,2.10
2022-11-27T08:55:01.583Z,2.20
2022-11-27T08:57:28.330Z,2.30
2022-11-27T08:59:55.181Z,2.40
2022-11-27T09:02:21.930Z,2.40
2022-11-27T09:04:48.928Z,2.40
2022-11-27T09:07:16.051Z,2.40
2022-11-27T09:09:43.211Z,2.50
2022-11-27T09:12:10.310Z,2.50
2022-11-27T09:14:38.215Z,2.60
2022-11-27T09:17:05.537Z,2.60
2022-11-27T09:19:32.540Z,2.70
2022-11-27T09:21:59.969Z,2.70
2022-11-27T09:30:33.582Z,3.00
2022-11-27T09:33:02.216Z,3.20
2022-11-27T09:35:29.213Z,3.20
2022-11-27T09:37:56.384Z,3.30
2022-11-27T09:40:23.720Z,3.40
2022-11-27T09:43:00.479Z,3.50
2022-11-27T09:45:27.909Z,3.50
2022-11-27T09:47:59.551Z,3.60
2022-11-27T09:50:38.986Z,3.60
2022-11-27T09:53:25.745Z,3.70
2022-11-27T09:55:53.812Z,3.90
2022-11-27T09:58:31.439Z,4.00
2022-11-27T10:01:01.823Z,4.10
2022-11-27T10:03:29.333Z,4.20
2022-11-27T10:06:21.577Z,4.30
2022-11-27T11:19:35.681Z,8.30
2022-11-27T11:22:14.559Z,8.40
2022-11-27T11:24:45.816Z,8.40
2022-11-27T11:27:15.051Z,8.50
2022-11-27T11:29:50.655Z,8.40
2022-11-27T11:32:20.555Z,8.40
2022-11-27T11:34:53.975Z,8.30
2022-11-27T11:37:32.552Z,8.30
2022-11-27T11:40:02.467Z,8.20
2022-11-27T11:42:33.679Z,8.20
2022-11-27T11:45:06.852Z,8.10
2022-11-27T11:47:33.815Z,8.10
2022-11-27T11:50:01.263Z,8.10
2022-11-27T11:52:28.203Z,8.20
2022-11-27T11:54:59.808Z,8.10
2022-11-27T11:57:46.884Z,8.10
2022-11-27T12:00:18.344Z,8.20
2022-11-27T12:02:48.254Z,8.20
2022-11-27T12:05:33.521Z,8.30
2022-11-27T12:08:12.548Z,8.30
2022-11-27T12:10:42.538Z,8.40
2022-11-27T12:13:24.757Z,8.50
2022-11-27T12:16:01.453Z,8.50
2022-11-27T12:18:51.614Z,8.60
2022-11-27T12:21:23.077Z,8.60
2022-11-27T12:23:53.667Z,8.50
2022-11-27T12:26:26.730Z,8.60
2022-11-27T12:29:12.230Z,8.60
2022-11-27T12:31:39.078Z,8.70
2022-11-27T12:34:06.160Z,8.60
2022-11-27T12:36:45.118Z,8.50
2022-11-27T12:39:26.076Z,8.60
2022-11-27T12:42:01.255Z,8.60
2022-11-27T12:44:37.887Z,8.60
2022-11-27T12:47:09.844Z,8.70
2022-11-27T12:49:48.726Z,8.70
2022-11-27T12:52:21.715Z,8.70
2022-11-27T12:54:48.563Z,8.80
2022-11-27T12:57:18.850Z,8.80
2022-11-27T12:59:58.629Z,8.80
2022-11-27T13:02:42.755Z,8.80
2022-11-27T13:05:24.100Z,8.90
2022-11-27T13:07:55.098Z,8.90
2022-11-27T13:10:40.986Z,8.90
2022-11-27T13:13:28.363Z,8.90
2022-11-27T13:15:57.690Z,8.80
2022-11-27T13:18:30.999Z,8.90
2022-11-27T13:21:00.023Z,8.90
2022-11-27T13:23:30.539Z,9.00
2022-11-27T13:25:58.558Z,9.00
2022-11-27T13:28:41.035Z,9.10
2022-11-27T13:31:09.521Z,9.10
2022-11-27T13:33:38.925Z,9.20
2022-11-27T13:36:08.726Z,9.20
2022-11-27T13:38:38.259Z,9.30
2022-11-27T13:41:06.309Z,9.30
2022-11-27T13:43:43.484Z,9.30
2022-11-27T13:46:21.149Z,9.30
2022-11-27T13:49:05.232Z,9.30
2022-11-27T13:51:36.607Z,9.30
2022-11-27T13:54:27.526Z,9.20
2022-11-27T13:56:55.741Z,9.10
2022-11-27T13:59:24.158Z,9.10
2022-11-27T14:01:55.261Z,9.10
2022-11-27T14:04:22.098Z,9.00
2022-11-27T14:06:54.304Z,9.00
2022-11-27T14:09:31.307Z,8.90
2022-11-27T14:11:58.159Z,8.90
2022-11-27T14:14:26.487Z,8.90
2022-11-27T14:16:58.222Z,8.80
2022-11-27T14:19:34.065Z,8.80
2022-11-27T14:22:01.881Z,8.70
2022-11-27T14:24:39.958Z,8.70
2022-11-27T14:27:13.085Z,8.70
2022-11-27T14:29:39.874Z,8.70
2022-11-27T14:32:09.928Z,8.60
2022-11-27T14:34:36.697Z,8.60
2022-11-27T14:37:03.453Z,8.60
2022-11-27T14:39:31.340Z,8.50
2022-11-27T14:41:59.016Z,8.50
2022-11-27T14:44:25.726Z,8.40
2022-11-27T14:46:52.739Z,8.40
2022-11-27T14:49:20.140Z,8.30
2022-11-27T14:51:47.172Z,8.30
2022-11-27T14:54:18.764Z,8.20
2022-11-27T14:56:45.656Z,8.20
2022-11-27T14:59:15.265Z,8.10
2022-11-27T15:01:42.047Z,8.10
2022-11-27T15:04:28.939Z,8.10
2022-11-27T15:06:56.648Z,8.00
2022-11-27T15:09:33.064Z,7.90
2022-11-27T15:12:02.968Z,7.80
2022-11-27T15:14:30.126Z,7.80
2022-11-27T15:16:57.422Z,7.70
2022-11-27T15:19:24.144Z,7.50
2022-11-27T15:21:51.060Z,7.40
2022-11-27T15:24:27.540Z,7.40
2022-11-27T15:26:54.302Z,7.20
2022-11-27T15:29:39.487Z,7.10
2022-11-27T15:32:21.845Z,7.00
2022-11-27T15:34:50.713Z,6.80
2022-11-27T15:37:22.539Z,6.80
2022-11-27T15:39:51.770Z,6.70
2022-11-27T15:42:19.170Z,6.60
2022-11-27T15:44:47.275Z,6.50
2022-11-27T15:47:31.103Z,6.40
2022-11-27T15:49:58.032Z,6.30
2022-11-27T15:52:25.022Z,6.30
2022-11-27T15:54:51.967Z,6.20
2022-11-27T15:57:19.052Z,6.10
2022-11-27T15:59:45.840Z,6.00
2022-11-27T16:02:17.554Z,5.90
2022-11-27T16:04:45.161Z,5.90
2022-11-27T16:07:11.945Z,5.80
2022-11-27T16:09:39.829Z,5.80
2022-11-27T16:12:06.762Z,5.70
2022-11-27T16:14:33.551Z,5.60
2022-11-27T16:17:01.376Z,5.60
2022-11-27T16:19:28.700Z,5.60
2022-11-27T16:21:55.446Z,5.50
2022-11-27T16:24:22.373Z,5.50
2022-11-27T16:26:49.193Z,5.50
2022-11-27T16:29:15.949Z,5.50
2022-11-27T16:31:42.938Z,5.60
2022-11-27T16:34:09.831Z,5.50
2022-11-27T16:36:40.666Z,5.50
2022-11-27T16:39:07.554Z,5.40
2022-11-27T16:41:34.362Z,5.40
2022-11-27T16:44:08.886Z,5.40
2022-11-27T16:46:36.265Z,5.40
2022-11-27T16:49:06.472Z,5.50
2022-11-27T16:51:34.146Z,5.50
2022-11-27T16:54:02.987Z,5.50
2022-11-27T16:56:31.145Z,5.50
2022-11-27T16:59:02.634Z,5.50
2022-11-27T17:01:32.628Z,5.60
2022-11-27T17:03:59.844Z,5.60
2022-11-27T17:06:30.768Z,5.50
2022-11-27T17:08:58.615Z,5.50
2022-11-27T17:11:26.805Z,5.50
2022-11-27T17:13:56.724Z,5.50
2022-11-27T17:16:23.674Z,5.50
2022-11-27T17:18:50.631Z,5.50
2022-11-27T17:21:18.627Z,5.50
2022-11-27T17:23:47.023Z,5.60
2022-11-27T17:26:15.399Z,5.60
2022-11-27T17:28:42.906Z,5.60
2022-11-27T17:31:15.433Z,5.60
2022-11-27T17:33:42.735Z,5.60
2022-11-27T17:36:09.861Z,5.70
2022-11-27T17:38:37.585Z,5.60
2022-11-27T17:41:10.673Z,5.70
2022-11-27T17:43:37.956Z,5.60
2022-11-27T17:46:08.750Z,5.60
2022-11-27T17:48:36.438Z,5.50
2022-11-27T17:51:04.391Z,5.50
2022-11-27T17:53:35.551Z,5.50
2022-11-27T17:56:06.423Z,5.50
2022-11-27T17:58:33.309Z,5.50
2022-11-27T18:01:00.245Z,5.50
2022-11-27T18:03:28.486Z,5.50
2022-11-27T18:05:55.574Z,5.50
2022-11-27T18:08:22.941Z,5.40
2022-11-27T18:10:50.004Z,5.50
2022-11-27T18:13:18.479Z,5.50
2022-11-27T18:15:46.138Z,5.50
2022-11-27T18:18:13.090Z,5.50
2022-11-27T18:20:39.900Z,5.50
2022-11-27T18:23:06.765Z,5.50
2022-11-27T18:25:33.614Z,5.50
2022-11-27T18:28:00.339Z,5.50
2022-11-27T18:30:27.070Z,5.50
2022-11-27T18:32:53.909Z,5.40
2022-11-27T18:35:23.960Z,5.40
2022-11-27T18:37:50.734Z,5.40
2022-11-27T18:40:17.643Z,5.40
2022-11-27T18:42:44.823Z,5.30
2022-11-27T18:45:31.244Z,5.30
2022-11-27T18:47:58.695Z,5.30
2022-11-27T18:50:29.600Z,5.30
2022-11-27T18:52:57.095Z,5.20
2022-11-27T18:55:24.572Z,5.10
2022-11-27T18:57:51.557Z,5.10
2022-11-27T19:00:18.849Z,5.10
2022-11-27T19:02:46.382Z,5.10
2022-11-27T19:05:13.389Z,5.10
2022-11-27T19:07:40.405Z,5.00
2022-11-27T19:10:07.632Z,4.90
2022-11-27T19:12:35.171Z,5.00
2022-11-27T19:15:02.034Z,5.00
2022-11-27T19:17:32.305Z,5.00
2022-11-27T19:19:59.897Z,5.10
2022-11-27T19:22:26.889Z,5.10
2022-11-27T19:24:56.672Z,5.30
2022-11-27T19:27:23.502Z,5.30
2022-11-27T19:29:50.640Z,5.40
2022-11-27T19:32:17.921Z,5.40
2022-11-27T19:34:45.696Z,5.50
2022-11-27T19:37:12.749Z,5.50
2022-11-27T19:39:39.565Z,5.60
2022-11-27T19:42:06.565Z,5.60
2022-11-27T19:44:33.386Z,5.50
2022-11-27T19:47:00.550Z,5.50
2022-11-27T19:49:28.292Z,5.50
2022-11-27T19:51:55.246Z,5.60
2022-11-27T19:54:23.325Z,5.60
2022-11-27T19:56:51.085Z,5.60
2022-11-27T19:59:22.869Z,5.60
2022-11-27T20:01:53.362Z,5.70
2022-11-27T20:04:25.557Z,5.70
2022-11-27T20:06:52.984Z,5.70
2022-11-27T20:09:20.540Z,5.70
2022-11-27T20:11:47.790Z,5.80
2022-11-27T20:14:15.130Z,5.70
2022-11-27T20:16:43.192Z,5.70
2022-11-27T20:19:10.803Z,5.70
2022-11-27T20:21:39.937Z,5.70
2022-11-27T20:24:06.948Z,5.80
2022-11-27T20:26:36.182Z,5.80
2022-11-27T20:29:07.440Z,5.90
2022-11-27T20:31:35.472Z,5.90
2022-11-27T20:34:03.540Z,5.90
2022-11-27T20:36:32.250Z,6.00
2022-11-27T20:38:59.795Z,6.00
2022-11-27T20:41:27.679Z,6.00
2022-11-27T20:43:57.633Z,6.00
2022-11-27T20:46:25.013Z,6.00
2022-11-27T20:48:52.720Z,6.00
2022-11-27T20:51:21.251Z,6.00
2022-11-27T20:53:49.067Z,6.00
2022-11-27T20:56:16.945Z,6.00
2022-11-27T20:58:44.894Z,6.10
2022-11-27T21:01:19.633Z,6.20
2022-11-27T21:03:48.909Z,6.10
2022-11-27T21:06:16.656Z,6.10
2022-11-27T21:08:43.879Z,6.10
2022-11-27T21:11:10.807Z,6.10
2022-11-27T21:13:37.748Z,6.10
2022-11-27T21:16:07.235Z,6.20
2022-11-27T21:18:34.304Z,6.20
2022-11-27T21:21:14.403Z,6.20
2022-11-27T21:23:41.716Z,6.20
2022-11-27T21:26:11.300Z,6.20
2022-11-27T21:28:38.461Z,6.20
2022-11-27T21:31:09.647Z,6.30
2022-11-27T21:33:37.170Z,6.30
2022-11-27T21:36:04.663Z,6.30
2022-11-27T21:38:32.299Z,6.30
2022-11-27T21:40:59.089Z,6.30
2022-11-27T21:43:26.186Z,6.30
2022-11-27T21:45:53.019Z,6.20
2022-11-27T21:48:20.559Z,6.20
2022-11-27T21:50:47.448Z,6.10
2022-11-27T21:53:14.247Z,6.20
2022-11-27T21:55:41.835Z,6.30
2022-11-27T21:58:08.894Z,6.20
2022-11-27T22:00:36.058Z,6.30
2022-11-27T22:03:02.996Z,6.30
2022-11-27T22:05:29.998Z,6.30
2022-11-27T22:07:56.803Z,6.30
2022-11-27T22:10:23.606Z,6.30
2022-11-27T22:12:50.364Z,6.30
2022-11-27T22:15:17.213Z,6.40
2022-11-27T22:17:46.046Z,6.40
2022-11-27T22:20:13.541Z,6.40
2022-11-27T22:22:40.510Z,6.40
2022-11-27T22:25:08.098Z,6.40
2022-11-27T22:27:34.885Z,6.40
2022-11-27T22:30:01.604Z,6.40
2022-11-27T22:32:30.048Z,6.40
2022-11-27T22:34:57.808Z,6.40
2022-11-27T22:37:24.545Z,6.40
2022-11-27T22:39:51.313Z,6.40
2022-11-27T22:42:18.353Z,6.40
2022-11-27T22:44:45.218Z,6.40
2022-11-27T22:47:12.176Z,6.40
2022-11-27T22:49:39.404Z,6.50
2022-11-27T22:52:06.165Z,6.40
2022-11-27T22:54:33.025Z,6.40
2022-11-27T22:57:00.099Z,6.40
2022-11-27T22:59:32.677Z,6.40
2022-11-27T23:02:01.687Z,6.40
2022-11-27T23:04:28.567Z,6.40
2022-11-27T23:06:55.422Z,6.40
2022-11-27T23:09:22.429Z,6.50
2022-11-27T23:11:49.415Z,6.50
2022-11-27T23:14:16.437Z,6.50
2022-11-27T23:16:43.264Z,6.50
2022-11-27T23:19:10.294Z,6.50
2022-11-27T23:21:38.771Z,6.50
2022-11-27T23:24:06.691Z,6.50
2022-11-27T23:26:34.046Z,6.50
2022-11-27T23:29:00.822Z,6.50
2022-11-27T23:31:31.425Z,6.50
2022-11-27T23:34:01.260Z,6.50
2022-11-27T23:36:28.313Z,6.50
2022-11-27T23:38:55.216Z,6.50
2022-11-27T23:41:25.340Z,6.60
2022-11-27T23:43:52.806Z,6.50
2022-11-27T23:46:20.784Z,6.60
2022-11-27T23:48:47.563Z,6.60
2022-11-27T23:51:15.823Z,6.50
2022-11-27T23:53:42.529Z,6.50
2022-11-27T23:56:10.491Z,6.50
2022-11-27T23:58:38.133Z,6.50
